sensor_id;sensor_type;location;lat;lon;timestamp;P1;durP1;ratioP1;P2;durP2;ratioP2
5199;SDS011;2619;47.868;11.892;2023-05-10T00:00:21;2.30;;;0.90;;
5199;SDS011;2619;47.868;11.892;2023-05-10T00:02:48;3.83;;;1.30;;
5199;SDS011;2619;47.868;11.892;2023-05-10T00:05:14;3.70;;;1.10;;
5199;SDS011;2619;47.868;11.892;2023-05-10T00:07:40;2.53;;;1.00;;
5199;SDS011;2619;47.868;11.892;2023-05-10T00:10:06;2.33;;;0.63;;
5199;SDS011;2619;47.868;11.892;2023-05-10T00:12:31;2.00;;;0.73;;
5199;SDS011;2619;47.868;11.892;2023-05-10T00:14:57;2.87;;;1.13;;
5199;SDS011;2619;47.868;11.892;2023-05-10T00:17:23;6.43;;;1.10;;
5199;SDS011;2619;47.868;11.892;2023-05-10T00:19:48;1.80;;;0.70;;
5199;SDS011;2619;47.868;11.892;2023-05-10T00:22:14;1.93;;;0.70;;
5199;SDS011;2619;47.868;11.892;2023-05-10T00:24:39;1.93;;;0.73;;
5199;SDS011;2619;47.868;11.892;2023-05-10T00:27:05;3.13;;;0.87;;
5199;SDS011;2619;47.868;11.892;2023-05-10T00:29:30;4.13;;;1.10;;
5199;SDS011;2619;47.868;11.892;2023-05-10T00:31:56;2.20;;;0.77;;
5199;SDS011;2619;47.868;11.892;2023-05-10T00:34:22;6.50;;;1.00;;
5199;SDS011;2619;47.868;11.892;2023-05-10T00:36:48;1.80;;;0.60;;
5199;SDS011;2619;47.868;11.892;2023-05-10T00:39:13;3.17;;;0.67;;
5199;SDS011;2619;47.868;11.892;2023-05-10T00:41:39;3.50;;;0.83;;
5199;SDS011;2619;47.868;11.892;2023-05-10T00:44:04;2.00;;;0.63;;
5199;SDS011;2619;47.868;11.892;2023-05-10T00:46:30;5.63;;;1.00;;
5199;SDS011;2619;47.868;11.892;2023-05-10T00:48:56;4.53;;;0.70;;
5199;SDS011;2619;47.868;11.892;2023-05-10T00:51:22;4.20;;;0.90;;
5199;SDS011;2619;47.868;11.892;2023-05-10T00:53:48;2.20;;;0.50;;
5199;SDS011;2619;47.868;11.892;2023-05-10T00:56:15;2.67;;;0.60;;
5199;SDS011;2619;47.868;11.892;2023-05-10T00:58:41;4.43;;;0.90;;
5199;SDS011;2619;47.868;11.892;2023-05-10T01:01:07;1.93;;;0.50;;
5199;SDS011;2619;47.868;11.892;2023-05-10T01:03:34;2.90;;;0.60;;
5199;SDS011;2619;47.868;11.892;2023-05-10T01:06:01;2.00;;;0.60;;
5199;SDS011;2619;47.868;11.892;2023-05-10T01:08:26;1.97;;;0.60;;
5199;SDS011;2619;47.868;11.892;2023-05-10T01:10:53;1.83;;;0.50;;
5199;SDS011;2619;47.868;11.892;2023-05-10T01:13:54;3.30;;;0.60;;
5199;SDS011;2619;47.868;11.892;2023-05-10T01:16:15;3.00;;;0.50;;
5199;SDS011;2619;47.868;11.892;2023-05-10T01:18:41;1.73;;;0.50;;
5199;SDS011;2619;47.868;11.892;2023-05-10T01:27:08;1.70;;;0.60;;
5199;SDS011;2619;47.868;11.892;2023-05-10T01:35:37;3.90;;;0.60;;
5199;SDS011;2619;47.868;11.892;2023-05-10T01:38:39;3.50;;;0.70;;
5199;SDS011;2619;47.868;11.892;2023-05-10T01:41:21;1.73;;;0.50;;
5199;SDS011;2619;47.868;11.892;2023-05-10T01:46:39;2.67;;;0.63;;
5199;SDS011;2619;47.868;11.892;2023-05-10T01:49:17;2.43;;;0.50;;
5199;SDS011;2619;47.868;11.892;2023-05-10T01:51:50;2.00;;;0.60;;
5199;SDS011;2619;47.868;11.892;2023-05-10T01:54:20;1.67;;;0.43;;
5199;SDS011;2619;47.868;11.892;2023-05-10T01:56:52;1.80;;;0.50;;
5199;SDS011;2619;47.868;11.892;2023-05-10T01:59:23;1.77;;;0.60;;
5199;SDS011;2619;47.868;11.892;2023-05-10T02:01:56;2.90;;;0.60;;
5199;SDS011;2619;47.868;11.892;2023-05-10T02:04:24;4.87;;;0.50;;
5199;SDS011;2619;47.868;11.892;2023-05-10T02:06:52;2.10;;;0.57;;
5199;SDS011;2619;47.868;11.892;2023-05-10T02:09:19;2.00;;;0.50;;
5199;SDS011;2619;47.868;11.892;2023-05-10T02:11:46;3.40;;;0.70;;
5199;SDS011;2619;47.868;11.892;2023-05-10T02:14:13;1.80;;;0.40;;
5199;SDS011;2619;47.868;11.892;2023-05-10T02:16:40;2.17;;;0.43;;
5199;SDS011;2619;47.868;11.892;2023-05-10T02:19:07;1.80;;;0.57;;
5199;SDS011;2619;47.868;11.892;2023-05-10T02:21:33;2.23;;;0.40;;
5199;SDS011;2619;47.868;11.892;2023-05-10T02:24:01;2.43;;;0.50;;
5199;SDS011;2619;47.868;11.892;2023-05-10T02:26:29;9.53;;;0.93;;
5199;SDS011;2619;47.868;11.892;2023-05-10T02:28:58;1.80;;;0.50;;
5199;SDS011;2619;47.868;11.892;2023-05-10T02:31:25;2.10;;;0.80;;
5199;SDS011;2619;47.868;11.892;2023-05-10T02:33:51;3.03;;;0.50;;
5199;SDS011;2619;47.868;11.892;2023-05-10T02:36:17;2.20;;;0.50;;
5199;SDS011;2619;47.868;11.892;2023-05-10T02:38:46;4.47;;;0.60;;
5199;SDS011;2619;47.868;11.892;2023-05-10T02:41:13;1.47;;;0.40;;
5199;SDS011;2619;47.868;11.892;2023-05-10T02:43:39;1.90;;;0.50;;
5199;SDS011;2619;47.868;11.892;2023-05-10T02:46:06;2.73;;;0.50;;
5199;SDS011;2619;47.868;11.892;2023-05-10T02:48:32;1.90;;;0.40;;
5199;SDS011;2619;47.868;11.892;2023-05-10T02:51:00;5.50;;;0.50;;
5199;SDS011;2619;47.868;11.892;2023-05-10T02:53:30;1.80;;;0.60;;
5199;SDS011;2619;47.868;11.892;2023-05-10T02:55:58;1.60;;;0.60;;
5199;SDS011;2619;47.868;11.892;2023-05-10T02:58:26;1.90;;;0.73;;
5199;SDS011;2619;47.868;11.892;2023-05-10T03:00:51;1.90;;;0.53;;
5199;SDS011;2619;47.868;11.892;2023-05-10T03:03:17;2.03;;;0.60;;
5199;SDS011;2619;47.868;11.892;2023-05-10T03:05:43;2.33;;;0.47;;
5199;SDS011;2619;47.868;11.892;2023-05-10T03:08:08;2.80;;;0.70;;
5199;SDS011;2619;47.868;11.892;2023-05-10T03:10:38;2.90;;;0.70;;
5199;SDS011;2619;47.868;11.892;2023-05-10T03:13:32;1.60;;;0.60;;
5199;SDS011;2619;47.868;11.892;2023-05-10T03:16:15;2.27;;;0.40;;
5199;SDS011;2619;47.868;11.892;2023-05-10T03:18:50;1.50;;;0.40;;
5199;SDS011;2619;47.868;11.892;2023-05-10T03:21:26;2.70;;;0.60;;
5199;SDS011;2619;47.868;11.892;2023-05-10T03:24:05;2.00;;;0.60;;
5199;SDS011;2619;47.868;11.892;2023-05-10T03:26:33;1.40;;;0.33;;
5199;SDS011;2619;47.868;11.892;2023-05-10T03:28:59;1.67;;;0.50;;
5199;SDS011;2619;47.868;11.892;2023-05-10T03:31:25;1.50;;;0.40;;
5199;SDS011;2619;47.868;11.892;2023-05-10T03:33:52;1.83;;;0.50;;
5199;SDS011;2619;47.868;11.892;2023-05-10T03:36:18;4.13;;;0.70;;
5199;SDS011;2619;47.868;11.892;2023-05-10T03:38:44;1.77;;;0.40;;
5199;SDS011;2619;47.868;11.892;2023-05-10T03:41:10;2.30;;;0.40;;
5199;SDS011;2619;47.868;11.892;2023-05-10T03:43:36;2.10;;;0.50;;
5199;SDS011;2619;47.868;11.892;2023-05-10T03:46:02;1.70;;;0.50;;
5199;SDS011;2619;47.868;11.892;2023-05-10T03:48:29;1.70;;;0.43;;
5199;SDS011;2619;47.868;11.892;2023-05-10T03:50:55;2.50;;;0.40;;
5199;SDS011;2619;47.868;11.892;2023-05-10T03:53:20;2.57;;;0.43;;
5199;SDS011;2619;47.868;11.892;2023-05-10T03:55:46;1.50;;;0.40;;
5199;SDS011;2619;47.868;11.892;2023-05-10T03:58:11;1.50;;;0.50;;
5199;SDS011;2619;47.868;11.892;2023-05-10T04:00:37;1.57;;;0.50;;
5199;SDS011;2619;47.868;11.892;2023-05-10T04:03:08;1.97;;;0.40;;
5199;SDS011;2619;47.868;11.892;2023-05-10T04:05:37;4.23;;;0.60;;
5199;SDS011;2619;47.868;11.892;2023-05-10T04:08:03;1.90;;;0.47;;
5199;SDS011;2619;47.868;11.892;2023-05-10T04:10:29;2.47;;;0.40;;
5199;SDS011;2619;47.868;11.892;2023-05-10T04:12:55;1.70;;;0.40;;
5199;SDS011;2619;47.868;11.892;2023-05-10T04:15:21;3.00;;;0.50;;
5199;SDS011;2619;47.868;11.892;2023-05-10T04:17:46;2.00;;;0.60;;
5199;SDS011;2619;47.868;11.892;2023-05-10T04:20:12;1.50;;;0.50;;
5199;SDS011;2619;47.868;11.892;2023-05-10T04:22:38;1.50;;;0.40;;
5199;SDS011;2619;47.868;11.892;2023-05-10T04:25:04;1.50;;;0.40;;
5199;SDS011;2619;47.868;11.892;2023-05-10T04:27:31;1.50;;;0.40;;
5199;SDS011;2619;47.868;11.892;2023-05-10T04:29:56;1.60;;;0.60;;
5199;SDS011;2619;47.868;11.892;2023-05-10T04:32:22;2.57;;;0.40;;
5199;SDS011;2619;47.868;11.892;2023-05-10T04:34:48;3.10;;;0.57;;
5199;SDS011;2619;47.868;11.892;2023-05-10T04:37:14;1.50;;;0.40;;
5199;SDS011;2619;47.868;11.892;2023-05-10T04:39:39;1.43;;;0.30;;
5199;SDS011;2619;47.868;11.892;2023-05-10T04:42:05;1.40;;;0.30;;
5199;SDS011;2619;47.868;11.892;2023-05-10T04:44:34;4.77;;;0.50;;
5199;SDS011;2619;47.868;11.892;2023-05-10T04:47:00;1.63;;;0.40;;
5199;SDS011;2619;47.868;11.892;2023-05-10T04:49:27;3.10;;;0.50;;
5199;SDS011;2619;47.868;11.892;2023-05-10T04:51:53;1.40;;;0.40;;
5199;SDS011;2619;47.868;11.892;2023-05-10T04:54:18;3.50;;;0.50;;
5199;SDS011;2619;47.868;11.892;2023-05-10T04:56:44;3.50;;;0.60;;
5199;SDS011;2619;47.868;11.892;2023-05-10T04:59:10;1.67;;;0.40;;
5199;SDS011;2619;47.868;11.892;2023-05-10T05:01:35;2.27;;;0.30;;
5199;SDS011;2619;47.868;11.892;2023-05-10T05:04:01;2.47;;;0.40;;
5199;SDS011;2619;47.868;11.892;2023-05-10T05:06:27;1.40;;;0.30;;
5199;SDS011;2619;47.868;11.892;2023-05-10T05:08:52;1.60;;;0.60;;
5199;SDS011;2619;47.868;11.892;2023-05-10T05:11:18;4.13;;;0.50;;
5199;SDS011;2619;47.868;11.892;2023-05-10T05:13:44;3.23;;;0.50;;
5199;SDS011;2619;47.868;11.892;2023-05-10T05:16:10;1.60;;;0.40;;
5199;SDS011;2619;47.868;11.892;2023-05-10T05:18:38;1.40;;;0.30;;
5199;SDS011;2619;47.868;11.892;2023-05-10T05:21:13;1.80;;;0.50;;
5199;SDS011;2619;47.868;11.892;2023-05-10T05:23:40;2.27;;;0.50;;
5199;SDS011;2619;47.868;11.892;2023-05-10T05:26:05;2.67;;;0.53;;
5199;SDS011;2619;47.868;11.892;2023-05-10T05:28:31;1.60;;;0.33;;
5199;SDS011;2619;47.868;11.892;2023-05-10T05:30:58;2.23;;;0.40;;
5199;SDS011;2619;47.868;11.892;2023-05-10T05:33:24;1.50;;;0.30;;
5199;SDS011;2619;47.868;11.892;2023-05-10T05:35:50;2.57;;;0.50;;
5199;SDS011;2619;47.868;11.892;2023-05-10T05:38:16;1.50;;;0.40;;
5199;SDS011;2619;47.868;11.892;2023-05-10T05:40:42;2.03;;;0.50;;
5199;SDS011;2619;47.868;11.892;2023-05-10T05:43:07;2.00;;;0.50;;
5199;SDS011;2619;47.868;11.892;2023-05-10T05:45:33;1.60;;;0.37;;
5199;SDS011;2619;47.868;11.892;2023-05-10T05:47:59;1.60;;;0.50;;
5199;SDS011;2619;47.868;11.892;2023-05-10T05:50:24;5.80;;;0.73;;
5199;SDS011;2619;47.868;11.892;2023-05-10T05:52:50;1.50;;;0.50;;
5199;SDS011;2619;47.868;11.892;2023-05-10T05:55:16;1.90;;;0.40;;
5199;SDS011;2619;47.868;11.892;2023-05-10T05:57:41;4.90;;;0.50;;
5199;SDS011;2619;47.868;11.892;2023-05-10T06:00:07;1.70;;;0.40;;
5199;SDS011;2619;47.868;11.892;2023-05-10T06:02:33;1.40;;;0.30;;
5199;SDS011;2619;47.868;11.892;2023-05-10T06:04:59;4.27;;;0.50;;
5199;SDS011;2619;47.868;11.892;2023-05-10T06:07:24;2.60;;;0.50;;
5199;SDS011;2619;47.868;11.892;2023-05-10T06:09:50;1.83;;;0.70;;
5199;SDS011;2619;47.868;11.892;2023-05-10T06:12:16;2.40;;;1.10;;
5199;SDS011;2619;47.868;11.892;2023-05-10T06:14:41;1.60;;;0.50;;
5199;SDS011;2619;47.868;11.892;2023-05-10T06:17:07;1.97;;;0.40;;
5199;SDS011;2619;47.868;11.892;2023-05-10T06:19:32;2.33;;;0.60;;
5199;SDS011;2619;47.868;11.892;2023-05-10T06:21:58;1.40;;;0.37;;
5199;SDS011;2619;47.868;11.892;2023-05-10T06:24:24;2.70;;;0.50;;
5199;SDS011;2619;47.868;11.892;2023-05-10T06:26:49;1.87;;;0.63;;
5199;SDS011;2619;47.868;11.892;2023-05-10T06:29:15;1.73;;;0.57;;
5199;SDS011;2619;47.868;11.892;2023-05-10T06:31:40;1.60;;;0.50;;
5199;SDS011;2619;47.868;11.892;2023-05-10T06:34:06;1.40;;;0.40;;
5199;SDS011;2619;47.868;11.892;2023-05-10T06:36:33;1.60;;;0.50;;
5199;SDS011;2619;47.868;11.892;2023-05-10T06:38:58;2.17;;;0.50;;
5199;SDS011;2619;47.868;11.892;2023-05-10T06:41:24;3.60;;;0.87;;
5199;SDS011;2619;47.868;11.892;2023-05-10T06:43:49;4.23;;;0.73;;
5199;SDS011;2619;47.868;11.892;2023-05-10T06:46:15;1.60;;;0.50;;
5199;SDS011;2619;47.868;11.892;2023-05-10T06:48:41;1.97;;;0.60;;
5199;SDS011;2619;47.868;11.892;2023-05-10T06:51:06;1.57;;;0.53;;
5199;SDS011;2619;47.868;11.892;2023-05-10T06:53:32;1.97;;;0.70;;
5199;SDS011;2619;47.868;11.892;2023-05-10T06:55:57;2.20;;;0.87;;
5199;SDS011;2619;47.868;11.892;2023-05-10T06:58:23;2.73;;;0.70;;
5199;SDS011;2619;47.868;11.892;2023-05-10T07:00:49;2.70;;;0.60;;
5199;SDS011;2619;47.868;11.892;2023-05-10T07:03:14;4.70;;;0.97;;
5199;SDS011;2619;47.868;11.892;2023-05-10T07:05:40;3.80;;;0.70;;
5199;SDS011;2619;47.868;11.892;2023-05-10T07:08:05;2.30;;;0.80;;
5199;SDS011;2619;47.868;11.892;2023-05-10T07:10:31;5.87;;;0.97;;
5199;SDS011;2619;47.868;11.892;2023-05-10T07:12:58;2.80;;;0.93;;
5199;SDS011;2619;47.868;11.892;2023-05-10T07:15:23;5.53;;;0.87;;
5199;SDS011;2619;47.868;11.892;2023-05-10T07:17:49;3.20;;;0.63;;
5199;SDS011;2619;47.868;11.892;2023-05-10T07:20:14;7.70;;;1.00;;
5199;SDS011;2619;47.868;11.892;2023-05-10T07:22:40;3.03;;;1.00;;
5199;SDS011;2619;47.868;11.892;2023-05-10T07:25:06;3.70;;;0.93;;
5199;SDS011;2619;47.868;11.892;2023-05-10T07:27:31;2.80;;;0.80;;
5199;SDS011;2619;47.868;11.892;2023-05-10T07:29:57;3.07;;;0.93;;
5199;SDS011;2619;47.868;11.892;2023-05-10T07:32:23;2.10;;;1.03;;
5199;SDS011;2619;47.868;11.892;2023-05-10T07:34:49;2.07;;;0.73;;
5199;SDS011;2619;47.868;11.892;2023-05-10T07:37:14;5.70;;;1.07;;
5199;SDS011;2619;47.868;11.892;2023-05-10T07:39:40;3.20;;;0.73;;
5199;SDS011;2619;47.868;11.892;2023-05-10T07:42:05;2.10;;;0.90;;
5199;SDS011;2619;47.868;11.892;2023-05-10T07:44:31;4.83;;;1.37;;
5199;SDS011;2619;47.868;11.892;2023-05-10T07:46:57;2.87;;;1.00;;
5199;SDS011;2619;47.868;11.892;2023-05-10T07:49:22;4.37;;;1.07;;
5199;SDS011;2619;47.868;11.892;2023-05-10T07:51:50;4.13;;;2.10;;
5199;SDS011;2619;47.868;11.892;2023-05-10T07:54:16;3.43;;;1.20;;
5199;SDS011;2619;47.868;11.892;2023-05-10T07:56:42;4.90;;;1.37;;
5199;SDS011;2619;47.868;11.892;2023-05-10T07:59:14;3.37;;;1.07;;
5199;SDS011;2619;47.868;11.892;2023-05-10T08:01:41;2.40;;;1.10;;
5199;SDS011;2619;47.868;11.892;2023-05-10T08:04:07;2.60;;;1.20;;
5199;SDS011;2619;47.868;11.892;2023-05-10T08:06:33;8.10;;;1.80;;
5199;SDS011;2619;47.868;11.892;2023-05-10T08:08:59;1.90;;;0.93;;
5199;SDS011;2619;47.868;11.892;2023-05-10T08:11:25;4.10;;;1.17;;
5199;SDS011;2619;47.868;11.892;2023-05-10T08:13:52;2.10;;;1.00;;
5199;SDS011;2619;47.868;11.892;2023-05-10T08:16:18;2.43;;;1.10;;
5199;SDS011;2619;47.868;11.892;2023-05-10T08:18:45;1.80;;;0.80;;
5199;SDS011;2619;47.868;11.892;2023-05-10T08:21:11;3.10;;;1.30;;
5199;SDS011;2619;47.868;11.892;2023-05-10T08:23:38;2.77;;;1.37;;
5199;SDS011;2619;47.868;11.892;2023-05-10T08:26:04;3.50;;;1.07;;
5199;SDS011;2619;47.868;11.892;2023-05-10T08:28:30;2.53;;;1.10;;
5199;SDS011;2619;47.868;11.892;2023-05-10T08:30:55;2.97;;;0.90;;
5199;SDS011;2619;47.868;11.892;2023-05-10T08:33:21;2.00;;;1.00;;
5199;SDS011;2619;47.868;11.892;2023-05-10T08:35:47;3.13;;;0.87;;
5199;SDS011;2619;47.868;11.892;2023-05-10T08:38:12;2.30;;;0.80;;
5199;SDS011;2619;47.868;11.892;2023-05-10T08:40:39;3.33;;;1.00;;
5199;SDS011;2619;47.868;11.892;2023-05-10T08:43:09;2.40;;;0.93;;
5199;SDS011;2619;47.868;11.892;2023-05-10T08:45:40;2.80;;;0.93;;
5199;SDS011;2619;47.868;11.892;2023-05-10T08:48:12;5.50;;;1.10;;
5199;SDS011;2619;47.868;11.892;2023-05-10T08:50:39;6.30;;;1.10;;
5199;SDS011;2619;47.868;11.892;2023-05-10T08:53:12;1.80;;;0.83;;
5199;SDS011;2619;47.868;11.892;2023-05-10T08:55:40;5.57;;;1.13;;
5199;SDS011;2619;47.868;11.892;2023-05-10T08:58:07;2.80;;;0.87;;
5199;SDS011;2619;47.868;11.892;2023-05-10T09:00:33;3.43;;;0.90;;
5199;SDS011;2619;47.868;11.892;2023-05-10T09:03:00;3.63;;;1.60;;
5199;SDS011;2619;47.868;11.892;2023-05-10T09:05:27;1.90;;;0.90;;
5199;SDS011;2619;47.868;11.892;2023-05-10T09:07:53;9.43;;;1.40;;
5199;SDS011;2619;47.868;11.892;2023-05-10T09:10:19;2.30;;;1.13;;
5199;SDS011;2619;47.868;11.892;2023-05-10T09:12:45;3.00;;;1.17;;
5199;SDS011;2619;47.868;11.892;2023-05-10T09:15:12;2.37;;;1.20;;
5199;SDS011;2619;47.868;11.892;2023-05-10T09:17:41;4.80;;;1.20;;
5199;SDS011;2619;47.868;11.892;2023-05-10T09:20:08;6.00;;;1.60;;
5199;SDS011;2619;47.868;11.892;2023-05-10T09:22:34;5.70;;;1.40;;
5199;SDS011;2619;47.868;11.892;2023-05-10T09:25:10;3.30;;;1.80;;
5199;SDS011;2619;47.868;11.892;2023-05-10T09:27:38;2.87;;;1.10;;
5199;SDS011;2619;47.868;11.892;2023-05-10T09:30:04;5.37;;;1.20;;
5199;SDS011;2619;47.868;11.892;2023-05-10T09:32:41;2.70;;;1.33;;
5199;SDS011;2619;47.868;11.892;2023-05-10T09:35:12;3.27;;;1.57;;
5199;SDS011;2619;47.868;11.892;2023-05-10T09:37:39;3.03;;;1.30;;
5199;SDS011;2619;47.868;11.892;2023-05-10T09:40:07;2.33;;;1.10;;
5199;SDS011;2619;47.868;11.892;2023-05-10T09:42:36;3.60;;;1.10;;
5199;SDS011;2619;47.868;11.892;2023-05-10T09:45:06;3.00;;;1.20;;
5199;SDS011;2619;47.868;11.892;2023-05-10T09:47:35;7.23;;;1.30;;
5199;SDS011;2619;47.868;11.892;2023-05-10T09:50:01;3.03;;;1.20;;
5199;SDS011;2619;47.868;11.892;2023-05-10T09:52:45;4.47;;;1.37;;
5199;SDS011;2619;47.868;11.892;2023-05-10T09:55:15;11.13;;;2.00;;
5199;SDS011;2619;47.868;11.892;2023-05-10T09:57:42;4.93;;;1.53;;
5199;SDS011;2619;47.868;11.892;2023-05-10T10:00:08;2.50;;;1.43;;
5199;SDS011;2619;47.868;11.892;2023-05-10T10:02:37;2.50;;;1.37;;
5199;SDS011;2619;47.868;11.892;2023-05-10T10:05:05;3.43;;;1.53;;
5199;SDS011;2619;47.868;11.892;2023-05-10T10:07:31;4.10;;;1.37;;
5199;SDS011;2619;47.868;11.892;2023-05-10T10:09:58;2.47;;;1.30;;
5199;SDS011;2619;47.868;11.892;2023-05-10T10:12:24;3.87;;;0.80;;
5199;SDS011;2619;47.868;11.892;2023-05-10T10:14:50;3.23;;;1.23;;
5199;SDS011;2619;47.868;11.892;2023-05-10T10:17:17;2.67;;;0.83;;
5199;SDS011;2619;47.868;11.892;2023-05-10T10:19:42;8.97;;;1.20;;
5199;SDS011;2619;47.868;11.892;2023-05-10T10:22:08;5.77;;;1.50;;
5199;SDS011;2619;47.868;11.892;2023-05-10T10:24:37;2.63;;;0.90;;
5199;SDS011;2619;47.868;11.892;2023-05-10T10:27:08;2.00;;;1.00;;
5199;SDS011;2619;47.868;11.892;2023-05-10T10:29:45;2.10;;;0.70;;
5199;SDS011;2619;47.868;11.892;2023-05-10T10:34:50;2.20;;;0.90;;
5199;SDS011;2619;47.868;11.892;2023-05-10T10:37:16;2.33;;;0.70;;
5199;SDS011;2619;47.868;11.892;2023-05-10T10:39:42;3.90;;;1.10;;
5199;SDS011;2619;47.868;11.892;2023-05-10T10:42:08;5.07;;;1.00;;
5199;SDS011;2619;47.868;11.892;2023-05-10T10:44:35;3.97;;;1.03;;
5199;SDS011;2619;47.868;11.892;2023-05-10T10:49:38;3.13;;;1.10;;
5199;SDS011;2619;47.868;11.892;2023-05-10T10:52:13;2.57;;;1.30;;
5199;SDS011;2619;47.868;11.892;2023-05-10T10:55:13;2.27;;;1.23;;
5199;SDS011;2619;47.868;11.892;2023-05-10T10:57:47;4.63;;;1.60;;
5199;SDS011;2619;47.868;11.892;2023-05-10T11:00:32;2.20;;;1.20;;
5199;SDS011;2619;47.868;11.892;2023-05-10T11:03:14;3.23;;;1.40;;
5199;SDS011;2619;47.868;11.892;2023-05-10T11:05:47;2.93;;;1.00;;
5199;SDS011;2619;47.868;11.892;2023-05-10T11:13:28;2.10;;;0.73;;
5199;SDS011;2619;47.868;11.892;2023-05-10T11:15:58;2.73;;;0.60;;
5199;SDS011;2619;47.868;11.892;2023-05-10T11:18:35;4.90;;;0.97;;
5199;SDS011;2619;47.868;11.892;2023-05-10T11:21:02;1.77;;;0.60;;
5199;SDS011;2619;47.868;11.892;2023-05-10T11:23:47;1.60;;;0.50;;
5199;SDS011;2619;47.868;11.892;2023-05-10T11:26:21;1.90;;;0.50;;
5199;SDS011;2619;47.868;11.892;2023-05-10T11:28:51;2.67;;;1.10;;
5199;SDS011;2619;47.868;11.892;2023-05-10T11:31:19;2.33;;;0.67;;
5199;SDS011;2619;47.868;11.892;2023-05-10T11:33:46;2.17;;;0.90;;
5199;SDS011;2619;47.868;11.892;2023-05-10T11:36:17;6.23;;;1.57;;
5199;SDS011;2619;47.868;11.892;2023-05-10T11:38:44;2.50;;;0.80;;
5199;SDS011;2619;47.868;11.892;2023-05-10T11:41:11;2.17;;;0.87;;
5199;SDS011;2619;47.868;11.892;2023-05-10T11:43:40;2.87;;;0.90;;
5199;SDS011;2619;47.868;11.892;2023-05-10T11:46:07;1.90;;;0.83;;
5199;SDS011;2619;47.868;11.892;2023-05-10T11:48:35;3.63;;;0.73;;
5199;SDS011;2619;47.868;11.892;2023-05-10T11:51:01;6.03;;;0.77;;
5199;SDS011;2619;47.868;11.892;2023-05-10T11:53:29;2.30;;;0.50;;
5199;SDS011;2619;47.868;11.892;2023-05-10T11:56:02;2.00;;;0.60;;
5199;SDS011;2619;47.868;11.892;2023-05-10T11:58:32;3.30;;;0.63;;
5199;SDS011;2619;47.868;11.892;2023-05-10T12:00:58;3.47;;;1.00;;
5199;SDS011;2619;47.868;11.892;2023-05-10T12:03:25;6.83;;;1.00;;
5199;SDS011;2619;47.868;11.892;2023-05-10T12:05:55;5.13;;;0.53;;
5199;SDS011;2619;47.868;11.892;2023-05-10T12:08:22;4.73;;;1.43;;
5199;SDS011;2619;47.868;11.892;2023-05-10T12:10:53;3.30;;;0.60;;
5199;SDS011;2619;47.868;11.892;2023-05-10T12:13:28;3.37;;;0.70;;
5199;SDS011;2619;47.868;11.892;2023-05-10T12:15:54;2.53;;;0.70;;
5199;SDS011;2619;47.868;11.892;2023-05-10T12:18:23;1.40;;;0.40;;
5199;SDS011;2619;47.868;11.892;2023-05-10T12:20:51;1.97;;;0.47;;
5199;SDS011;2619;47.868;11.892;2023-05-10T12:23:18;8.60;;;1.33;;
5199;SDS011;2619;47.868;11.892;2023-05-10T12:25:45;3.40;;;0.70;;
5199;SDS011;2619;47.868;11.892;2023-05-10T12:28:11;1.77;;;0.60;;
5199;SDS011;2619;47.868;11.892;2023-05-10T12:30:36;1.50;;;0.50;;
5199;SDS011;2619;47.868;11.892;2023-05-10T12:33:07;5.30;;;0.80;;
5199;SDS011;2619;47.868;11.892;2023-05-10T12:35:44;2.90;;;0.50;;
5199;SDS011;2619;47.868;11.892;2023-05-10T12:41:09;2.90;;;0.80;;
5199;SDS011;2619;47.868;11.892;2023-05-10T12:43:36;2.57;;;0.60;;
5199;SDS011;2619;47.868;11.892;2023-05-10T12:46:06;3.80;;;0.80;;
5199;SDS011;2619;47.868;11.892;2023-05-10T12:48:40;3.97;;;0.97;;
5199;SDS011;2619;47.868;11.892;2023-05-10T12:51:06;7.03;;;0.90;;
5199;SDS011;2619;47.868;11.892;2023-05-10T12:53:37;4.13;;;1.07;;
5199;SDS011;2619;47.868;11.892;2023-05-10T12:56:03;2.50;;;1.10;;
5199;SDS011;2619;47.868;11.892;2023-05-10T12:58:29;4.57;;;0.90;;
5199;SDS011;2619;47.868;11.892;2023-05-10T13:00:54;3.27;;;0.83;;
5199;SDS011;2619;47.868;11.892;2023-05-10T13:03:21;2.20;;;0.83;;
5199;SDS011;2619;47.868;11.892;2023-05-10T13:05:47;3.60;;;0.87;;
5199;SDS011;2619;47.868;11.892;2023-05-10T13:08:13;1.70;;;0.67;;
5199;SDS011;2619;47.868;11.892;2023-05-10T13:10:39;6.77;;;1.30;;
5199;SDS011;2619;47.868;11.892;2023-05-10T13:13:05;3.00;;;1.00;;
5199;SDS011;2619;47.868;11.892;2023-05-10T13:15:32;13.60;;;1.40;;
5199;SDS011;2619;47.868;11.892;2023-05-10T13:17:57;2.10;;;0.90;;
5199;SDS011;2619;47.868;11.892;2023-05-10T13:20:23;2.70;;;0.90;;
5199;SDS011;2619;47.868;11.892;2023-05-10T13:22:49;2.43;;;1.00;;
5199;SDS011;2619;47.868;11.892;2023-05-10T13:25:15;3.60;;;0.93;;
5199;SDS011;2619;47.868;11.892;2023-05-10T13:27:40;4.80;;;1.43;;
5199;SDS011;2619;47.868;11.892;2023-05-10T13:30:06;3.73;;;1.07;;
5199;SDS011;2619;47.868;11.892;2023-05-10T13:32:33;5.77;;;1.10;;
5199;SDS011;2619;47.868;11.892;2023-05-10T13:34:59;3.00;;;1.17;;
5199;SDS011;2619;47.868;11.892;2023-05-10T13:37:25;2.20;;;0.77;;
5199;SDS011;2619;47.868;11.892;2023-05-10T13:39:51;7.40;;;1.90;;
5199;SDS011;2619;47.868;11.892;2023-05-10T13:42:17;2.87;;;1.00;;
5199;SDS011;2619;47.868;11.892;2023-05-10T13:44:42;2.40;;;1.00;;
5199;SDS011;2619;47.868;11.892;2023-05-10T13:47:08;4.23;;;1.27;;
5199;SDS011;2619;47.868;11.892;2023-05-10T13:49:35;3.47;;;1.60;;
5199;SDS011;2619;47.868;11.892;2023-05-10T13:52:00;3.30;;;1.30;;
5199;SDS011;2619;47.868;11.892;2023-05-10T13:54:31;3.83;;;1.30;;
5199;SDS011;2619;47.868;11.892;2023-05-10T13:57:06;2.13;;;1.03;;
5199;SDS011;2619;47.868;11.892;2023-05-10T13:59:32;5.20;;;1.57;;
5199;SDS011;2619;47.868;11.892;2023-05-10T14:01:58;2.07;;;1.30;;
5199;SDS011;2619;47.868;11.892;2023-05-10T14:04:24;5.17;;;1.30;;
5199;SDS011;2619;47.868;11.892;2023-05-10T14:06:49;7.17;;;1.43;;
5199;SDS011;2619;47.868;11.892;2023-05-10T14:09:15;2.90;;;0.87;;
5199;SDS011;2619;47.868;11.892;2023-05-10T14:11:41;5.07;;;1.27;;
5199;SDS011;2619;47.868;11.892;2023-05-10T14:14:08;2.90;;;1.20;;
5199;SDS011;2619;47.868;11.892;2023-05-10T14:16:34;4.87;;;1.43;;
5199;SDS011;2619;47.868;11.892;2023-05-10T14:19:00;2.50;;;1.13;;
5199;SDS011;2619;47.868;11.892;2023-05-10T14:21:26;3.13;;;1.17;;
5199;SDS011;2619;47.868;11.892;2023-05-10T14:23:54;9.87;;;1.57;;
5199;SDS011;2619;47.868;11.892;2023-05-10T14:26:20;4.03;;;1.50;;
5199;SDS011;2619;47.868;11.892;2023-05-10T14:28:46;2.80;;;1.33;;
5199;SDS011;2619;47.868;11.892;2023-05-10T14:31:12;5.37;;;1.80;;
5199;SDS011;2619;47.868;11.892;2023-05-10T14:33:37;5.90;;;1.83;;
5199;SDS011;2619;47.868;11.892;2023-05-10T14:36:03;3.07;;;1.20;;
5199;SDS011;2619;47.868;11.892;2023-05-10T14:38:29;4.10;;;1.57;;
5199;SDS011;2619;47.868;11.892;2023-05-10T14:40:54;7.53;;;1.70;;
5199;SDS011;2619;47.868;11.892;2023-05-10T14:43:20;7.20;;;2.23;;
5199;SDS011;2619;47.868;11.892;2023-05-10T14:45:46;6.00;;;1.40;;
5199;SDS011;2619;47.868;11.892;2023-05-10T14:48:12;2.70;;;1.20;;
5199;SDS011;2619;47.868;11.892;2023-05-10T14:50:40;2.47;;;1.10;;
5199;SDS011;2619;47.868;11.892;2023-05-10T14:53:06;9.10;;;1.80;;
5199;SDS011;2619;47.868;11.892;2023-05-10T14:55:31;6.70;;;1.60;;
5199;SDS011;2619;47.868;11.892;2023-05-10T14:57:57;4.40;;;1.43;;
5199;SDS011;2619;47.868;11.892;2023-05-10T15:00:23;6.13;;;2.30;;
5199;SDS011;2619;47.868;11.892;2023-05-10T15:02:49;3.50;;;1.87;;
5199;SDS011;2619;47.868;11.892;2023-05-10T15:05:14;3.93;;;1.17;;
5199;SDS011;2619;47.868;11.892;2023-05-10T15:07:40;5.57;;;1.27;;
5199;SDS011;2619;47.868;11.892;2023-05-10T15:10:08;6.10;;;1.50;;
5199;SDS011;2619;47.868;11.892;2023-05-10T15:12:34;2.27;;;1.10;;
5199;SDS011;2619;47.868;11.892;2023-05-10T15:15:00;4.43;;;0.80;;
5199;SDS011;2619;47.868;11.892;2023-05-10T15:17:26;3.63;;;0.90;;
5199;SDS011;2619;47.868;11.892;2023-05-10T15:19:51;4.40;;;1.10;;
5199;SDS011;2619;47.868;11.892;2023-05-10T15:22:17;4.97;;;1.07;;
5199;SDS011;2619;47.868;11.892;2023-05-10T15:24:42;9.00;;;1.40;;
5199;SDS011;2619;47.868;11.892;2023-05-10T15:27:08;7.80;;;0.93;;
5199;SDS011;2619;47.868;11.892;2023-05-10T15:29:34;2.60;;;1.00;;